createdAt,value
2018-03-24T00:01:46.172Z,7.30
2018-03-24T00:04:19.773Z,8.07
2018-03-24T00:06:52.884Z,7.57
2018-03-24T00:09:27.933Z,8.07
2018-03-24T00:12:01.557Z,8.07
2018-03-24T00:14:34.737Z,8.63
2018-03-24T00:17:09.254Z,8.70
2018-03-24T00:19:42.880Z,8.27
2018-03-24T00:22:15.961Z,8.17
2018-03-24T00:24:51.957Z,8.40
2018-03-24T00:27:26.268Z,9.33
2018-03-24T00:29:59.421Z,8.57
2018-03-24T00:32:32.664Z,9.00
2018-03-24T00:35:06.443Z,9.50
2018-03-24T00:37:39.374Z,9.70
2018-03-24T00:40:13.548Z,8.77
2018-03-24T00:42:47.466Z,9.63
2018-03-24T00:45:20.858Z,9.07
2018-03-24T00:47:54.430Z,8.97
2018-03-24T00:50:27.967Z,9.10
2018-03-24T00:53:01.144Z,10.20
2018-03-24T00:55:34.482Z,9.23
2018-03-24T00:58:07.911Z,8.70
2018-03-24T01:00:41.166Z,10.37
2018-03-24T01:03:14.520Z,10.87
2018-03-24T01:05:48.385Z,11.13
2018-03-24T01:08:21.628Z,9.67
2018-03-24T01:10:54.764Z,11.10
2018-03-24T01:13:29.608Z,10.80
2018-03-24T01:16:02.621Z,10.60
2018-03-24T01:18:36.652Z,10.03
2018-03-24T01:21:11.675Z,9.43
2018-03-24T01:23:44.760Z,8.97
2018-03-24T01:26:17.754Z,10.13
2018-03-24T01:28:51.128Z,9.67
2018-03-24T01:31:24.174Z,9.13
2018-03-24T01:33:57.817Z,10.37
2018-03-24T01:36:31.167Z,9.43
2018-03-24T01:39:04.413Z,9.77
2018-03-24T01:41:37.762Z,9.90
2018-03-24T01:44:11.246Z,10.47
2018-03-24T01:46:44.420Z,10.47
2018-03-24T01:49:18.481Z,11.57
2018-03-24T01:51:52.008Z,10.03
2018-03-24T01:54:25.784Z,9.63
2018-03-24T01:56:59.648Z,9.50
2018-03-24T01:59:32.671Z,9.70
2018-03-24T02:02:06.610Z,11.73
2018-03-24T02:04:40.209Z,10.60
2018-03-24T02:07:13.214Z,10.70
2018-03-24T02:09:47.332Z,10.50
2018-03-24T02:12:20.763Z,12.50
2018-03-24T02:14:54.085Z,10.83
2018-03-24T02:17:27.259Z,10.47
2018-03-24T02:20:03.325Z,12.80
2018-03-24T02:22:37.068Z,11.13
2018-03-24T02:25:10.166Z,11.87
2018-03-24T02:27:43.484Z,11.90
2018-03-24T02:30:16.689Z,10.47
2018-03-24T02:32:50.049Z,12.67
2018-03-24T02:35:24.008Z,11.43
2018-03-24T02:37:57.099Z,12.50
2018-03-24T02:40:30.424Z,11.90
2018-03-24T02:43:04.720Z,10.80
2018-03-24T02:45:37.763Z,10.30
2018-03-24T02:48:11.521Z,9.70
2018-03-24T02:50:45.287Z,10.17
2018-03-24T02:53:18.440Z,9.90
2018-03-24T02:55:51.855Z,10.63
2018-03-24T02:58:25.741Z,8.90
2018-03-24T03:00:58.821Z,8.70
2018-03-24T03:03:32.338Z,8.80
2018-03-24T03:06:06.523Z,8.57
2018-03-24T03:08:41.409Z,8.77
2018-03-24T03:11:14.860Z,10.10
2018-03-24T03:13:49.280Z,10.20
2018-03-24T03:16:22.676Z,9.97
2018-03-24T03:18:55.950Z,9.83
2018-03-24T03:21:34.641Z,9.13
2018-03-24T03:24:09.089Z,8.03
2018-03-24T03:26:43.872Z,8.00
2018-03-24T03:29:16.954Z,8.60
2018-03-24T03:31:50.394Z,11.27
2018-03-24T03:34:24.653Z,11.47
2018-03-24T03:36:59.112Z,12.13
2018-03-24T03:39:34.059Z,12.67
2018-03-24T03:42:07.220Z,11.50
2018-03-24T03:44:40.557Z,11.33
2018-03-24T03:47:13.988Z,10.30
2018-03-24T03:49:47.032Z,9.77
2018-03-24T03:52:20.628Z,10.90
2018-03-24T03:54:54.970Z,11.83
2018-03-24T03:57:28.906Z,13.43
2018-03-24T04:00:03.381Z,13.00
2018-03-24T04:02:38.269Z,11.77
2018-03-24T04:05:11.866Z,11.87
2018-03-24T04:07:44.970Z,13.40
2018-03-24T04:10:19.328Z,12.17
2018-03-24T04:12:52.940Z,12.83
2018-03-24T04:15:26.264Z,11.00
2018-03-24T04:17:59.594Z,10.93
2018-03-24T04:20:33.257Z,11.67
2018-03-24T04:23:06.868Z,13.73
2018-03-24T04:25:40.359Z,13.63
2018-03-24T04:28:14.218Z,13.63
2018-03-24T04:30:47.598Z,10.73
2018-03-24T04:33:21.743Z,12.20
2018-03-24T04:35:55.947Z,12.90
2018-03-24T04:38:29.204Z,14.33
2018-03-24T04:41:02.856Z,14.13
2018-03-24T04:43:36.356Z,11.40
2018-03-24T04:46:09.663Z,13.23
2018-03-24T04:48:42.899Z,13.37
2018-03-24T04:51:16.369Z,15.93
2018-03-24T04:53:50.361Z,13.07
2018-03-24T04:56:24.106Z,12.57
2018-03-24T04:58:57.598Z,13.20
2018-03-24T05:01:30.797Z,14.57
2018-03-24T05:04:04.749Z,14.43
2018-03-24T05:06:37.897Z,12.90
2018-03-24T05:09:11.378Z,13.43
2018-03-24T05:11:44.407Z,12.77
2018-03-24T05:14:17.899Z,11.27
2018-03-24T05:16:51.058Z,11.87
2018-03-24T05:19:25.520Z,12.40
2018-03-24T05:21:59.055Z,11.77
2018-03-24T05:24:33.787Z,11.77
2018-03-24T05:27:07.686Z,14.33
2018-03-24T05:29:41.042Z,12.20
2018-03-24T05:32:14.620Z,15.70
2018-03-24T05:34:48.285Z,19.93
2018-03-24T05:37:21.759Z,16.00
2018-03-24T05:39:55.087Z,13.90
2018-03-24T05:42:28.189Z,13.13
2018-03-24T05:45:02.238Z,12.77
2018-03-24T05:47:35.323Z,11.67
2018-03-24T05:50:09.154Z,11.53
2018-03-24T05:52:42.294Z,12.30
2018-03-24T05:55:15.917Z,12.57
2018-03-24T05:57:49.216Z,14.27
2018-03-24T06:00:22.472Z,13.47
2018-03-24T06:02:56.063Z,12.30
2018-03-24T06:05:30.157Z,12.13
2018-03-24T06:08:04.059Z,14.50
2018-03-24T06:10:38.021Z,12.97
2018-03-24T06:13:11.659Z,12.63
2018-03-24T06:15:44.821Z,13.57
2018-03-24T06:18:18.051Z,12.07
2018-03-24T06:20:59.390Z,13.13
2018-03-24T06:23:39.719Z,16.77
2018-03-24T06:26:15.721Z,18.37
2018-03-24T06:28:52.356Z,14.47
2018-03-24T06:31:26.287Z,15.33
2018-03-24T06:33:59.674Z,15.77
2018-03-24T06:36:35.269Z,16.63
2018-03-24T06:39:08.864Z,15.63
2018-03-24T06:41:42.199Z,13.23
2018-03-24T06:44:16.265Z,14.70
2018-03-24T06:46:49.559Z,16.73
2018-03-24T06:49:22.680Z,16.37
2018-03-24T06:51:57.211Z,14.60
2018-03-24T06:54:30.619Z,15.10
2018-03-24T06:57:04.811Z,15.73
2018-03-24T06:59:38.316Z,15.73
2018-03-24T07:02:12.252Z,16.40
2018-03-24T07:04:45.950Z,17.57
2018-03-24T07:07:19.077Z,15.50
2018-03-24T07:09:52.295Z,15.97
2018-03-24T07:12:29.138Z,16.07
2018-03-24T07:15:42.132Z,15.87
2018-03-24T07:18:18.776Z,15.40
2018-03-24T07:20:54.588Z,16.33
2018-03-24T07:23:28.533Z,16.70
2018-03-24T07:26:01.819Z,15.37
2018-03-24T07:28:35.007Z,15.50
2018-03-24T07:31:08.794Z,16.47
2018-03-24T07:33:42.230Z,16.80
2018-03-24T07:36:16.924Z,15.23
2018-03-24T07:38:51.948Z,16.17
2018-03-24T07:41:25.470Z,14.13
2018-03-24T07:43:58.859Z,16.97
2018-03-24T07:46:32.465Z,15.67
2018-03-24T07:49:05.468Z,18.07
2018-03-24T07:51:40.918Z,22.13
2018-03-24T07:54:15.041Z,33.90
2018-03-24T07:56:48.201Z,30.97
2018-03-24T07:59:23.260Z,28.70
2018-03-24T08:01:56.538Z,27.17
2018-03-24T08:04:29.804Z,23.70
2018-03-24T08:07:04.352Z,23.53
2018-03-24T08:09:37.366Z,21.87
2018-03-24T08:12:10.611Z,19.53
2018-03-24T08:14:48.533Z,22.85
2018-03-24T08:17:21.688Z,22.10
2018-03-24T08:19:55.424Z,21.80
2018-03-24T08:22:32.836Z,22.53
2018-03-24T08:27:47.685Z,21.27
2018-03-24T08:30:21.113Z,21.57
2018-03-24T08:32:54.406Z,21.77
2018-03-24T08:35:29.950Z,19.27
2018-03-24T08:38:04.021Z,19.83
2018-03-24T08:40:37.628Z,22.23
2018-03-24T08:43:14.754Z,19.93
2018-03-24T08:45:52.310Z,21.30
2018-03-24T08:48:28.029Z,21.90
2018-03-24T08:51:13.260Z,22.63
2018-03-24T08:53:48.027Z,20.47
2018-03-24T08:56:23.262Z,18.40
2018-03-24T08:58:59.224Z,16.90
2018-03-24T09:01:44.833Z,19.40
2018-03-24T09:04:31.986Z,16.77
2018-03-24T09:07:11.248Z,20.70
2018-03-24T09:13:42.713Z,18.40
2018-03-24T09:16:23.916Z,18.80
2018-03-24T09:18:57.878Z,19.23
2018-03-24T09:21:35.253Z,18.07
2018-03-24T09:24:09.994Z,17.83
2018-03-24T09:26:45.382Z,17.30
2018-03-24T09:29:18.863Z,15.93
2018-03-24T09:31:56.302Z,19.40
2018-03-24T09:34:32.325Z,18.90
2018-03-24T09:37:06.682Z,19.60
2018-03-24T09:39:40.246Z,20.03
2018-03-24T09:42:13.950Z,15.97
2018-03-24T09:44:48.330Z,18.43
2018-03-24T09:47:23.231Z,15.60
2018-03-24T09:49:57.029Z,16.17
2018-03-24T09:52:30.062Z,17.37
2018-03-24T09:55:03.717Z,15.80
2018-03-24T09:57:38.290Z,13.27
2018-03-24T10:00:11.421Z,12.57
2018-03-24T10:02:44.549Z,13.17
2018-03-24T10:05:19.319Z,12.97
2018-03-24T10:08:06.648Z,12.17
2018-03-24T10:10:41.920Z,13.50
2018-03-24T10:13:15.450Z,11.80
2018-03-24T10:15:49.805Z,11.40
2018-03-24T10:18:23.189Z,10.93
2018-03-24T10:21:00.379Z,13.33
2018-03-24T10:23:34.161Z,12.30
2018-03-24T10:26:07.828Z,13.80
2018-03-24T10:28:42.790Z,13.50
2018-03-24T10:31:16.851Z,13.13
2018-03-24T10:33:54.616Z,12.40
2018-03-24T10:36:28.232Z,12.33
2018-03-24T10:39:02.497Z,11.43
2018-03-24T10:41:36.515Z,12.67
2018-03-24T10:44:10.328Z,11.37
2018-03-24T10:46:46.755Z,8.87
2018-03-24T10:50:49.315Z,11.40
2018-03-24T10:53:24.907Z,12.87
2018-03-24T10:55:59.051Z,15.07
2018-03-24T10:58:36.033Z,13.70
2018-03-24T11:01:14.437Z,13.00
2018-03-24T11:03:48.080Z,13.13
2018-03-24T11:06:21.324Z,12.87
2018-03-24T11:08:54.835Z,12.50
2018-03-24T11:11:28.438Z,12.87
2018-03-24T11:14:02.590Z,12.60
2018-03-24T11:16:36.035Z,11.67
2018-03-24T11:19:09.237Z,13.47
2018-03-24T11:21:43.086Z,13.60
2018-03-24T11:24:17.588Z,12.37
2018-03-24T11:26:51.025Z,12.37
2018-03-24T11:29:26.802Z,12.20
2018-03-24T11:32:01.811Z,10.70
2018-03-24T11:34:35.584Z,13.73
2018-03-24T11:37:10.389Z,12.37
2018-03-24T11:39:45.245Z,12.67
2018-03-24T11:42:19.072Z,13.03
2018-03-24T11:44:52.282Z,12.40
2018-03-24T11:47:27.120Z,13.30
2018-03-24T11:50:01.874Z,12.70
2018-03-24T11:52:36.440Z,12.77
2018-03-24T11:55:11.515Z,11.90
2018-03-24T11:57:45.646Z,13.50
2018-03-24T12:00:21.418Z,10.97
2018-03-24T12:02:55.405Z,12.80
2018-03-24T12:05:29.408Z,14.47
2018-03-24T12:08:21.036Z,13.93
2018-03-24T12:10:54.764Z,12.97
2018-03-24T12:13:28.881Z,12.20
2018-03-24T12:16:02.609Z,13.43
2018-03-24T12:18:36.153Z,12.33
2018-03-24T12:21:11.561Z,12.30
2018-03-24T12:23:45.824Z,13.60
2018-03-24T12:26:22.801Z,13.07
2018-03-24T12:28:56.847Z,13.10
2018-03-24T12:31:31.145Z,12.53
2018-03-24T12:34:05.969Z,12.90
2018-03-24T12:36:40.648Z,14.07
2018-03-24T12:39:14.062Z,12.53
2018-03-24T12:41:47.796Z,12.63
2018-03-24T12:44:21.103Z,11.40
2018-03-24T12:46:55.493Z,14.20
2018-03-24T12:49:28.704Z,12.20
2018-03-24T12:52:03.193Z,11.23
2018-03-24T12:54:36.775Z,11.73
2018-03-24T12:57:11.478Z,12.73
2018-03-24T12:59:45.918Z,11.13
2018-03-24T13:02:25.150Z,11.50
2018-03-24T13:05:01.576Z,11.50
2018-03-24T13:07:48.018Z,11.50
2018-03-24T13:10:43.102Z,13.37
2018-03-24T13:13:21.327Z,13.77
2018-03-24T13:15:58.714Z,12.37
2018-03-24T13:18:33.596Z,13.10
2018-03-24T13:21:07.152Z,12.70
2018-03-24T13:23:42.054Z,11.87
2018-03-24T13:26:18.956Z,12.07
2018-03-24T13:28:52.268Z,11.50
2018-03-24T13:31:42.858Z,11.07
2018-03-24T13:34:16.519Z,14.93
2018-03-24T13:36:51.851Z,14.83
2018-03-24T13:39:25.506Z,16.10
2018-03-24T13:42:00.017Z,16.67
2018-03-24T13:44:35.283Z,15.57
2018-03-24T13:47:11.211Z,15.07
2018-03-24T13:49:48.585Z,14.70
2018-03-24T13:52:22.949Z,15.13
2018-03-24T13:54:57.095Z,15.63
2018-03-24T13:57:30.523Z,15.57
2018-03-24T14:00:04.638Z,15.73
2018-03-24T14:02:38.839Z,15.50
2018-03-24T14:05:12.234Z,14.50
2018-03-24T14:07:48.119Z,15.10
2018-03-24T14:10:24.320Z,13.67
2018-03-24T14:12:58.006Z,14.80
2018-03-24T14:15:31.291Z,13.63
2018-03-24T14:18:04.694Z,13.90
2018-03-24T14:20:38.714Z,12.97
2018-03-24T14:23:12.133Z,14.23
2018-03-24T14:25:45.693Z,13.93
2018-03-24T14:28:20.770Z,13.47
2018-03-24T14:30:54.235Z,14.60
2018-03-24T14:33:29.089Z,15.00
2018-03-24T14:36:03.708Z,14.93
2018-03-24T14:38:36.859Z,14.20
2018-03-24T14:41:11.236Z,16.90
2018-03-24T14:43:44.952Z,15.13
2018-03-24T14:46:18.530Z,15.17
2018-03-24T14:48:53.598Z,14.23
2018-03-24T14:51:27.116Z,14.67
2018-03-24T14:54:01.835Z,14.87
2018-03-24T14:56:36.953Z,15.07
2018-03-24T14:59:12.437Z,14.37
2018-03-24T15:01:46.122Z,14.90
2018-03-24T15:04:20.741Z,14.33
2018-03-24T15:06:54.412Z,14.03
2018-03-24T15:09:27.518Z,15.23
2018-03-24T15:12:00.703Z,14.10
2018-03-24T15:14:34.686Z,14.03
2018-03-24T15:17:07.838Z,15.20
2018-03-24T15:19:42.419Z,18.43
2018-03-24T15:22:17.016Z,17.87
2018-03-24T15:24:50.622Z,14.67
2018-03-24T15:27:24.541Z,15.00
2018-03-24T15:30:12.759Z,15.50
2018-03-24T15:32:53.692Z,15.23
2018-03-24T15:38:32.161Z,17.20
2018-03-24T15:41:05.984Z,16.73
2018-03-24T15:43:39.944Z,17.60
2018-03-24T15:46:15.451Z,17.50
2018-03-24T15:48:50.382Z,15.87
2018-03-24T15:51:24.735Z,14.87
2018-03-24T15:54:00.133Z,14.57
2018-03-24T15:56:35.370Z,15.57
2018-03-24T15:59:09.571Z,15.57
2018-03-24T16:01:42.982Z,15.90
2018-03-24T16:04:18.311Z,14.90
2018-03-24T16:06:52.585Z,15.83
2018-03-24T16:09:27.471Z,14.17
2018-03-24T16:12:03.768Z,14.17
2018-03-24T16:14:38.149Z,14.97
2018-03-24T16:17:12.459Z,15.67
2018-03-24T16:19:47.965Z,15.37
2018-03-24T16:22:26.978Z,16.73
2018-03-24T16:25:01.584Z,15.20
2018-03-24T16:27:35.908Z,16.40
2018-03-24T16:30:10.331Z,16.70
2018-03-24T16:32:45.686Z,17.33
2018-03-24T16:35:19.070Z,14.97
2018-03-24T16:37:52.649Z,15.27
2018-03-24T16:40:26.083Z,14.53
2018-03-24T16:43:00.053Z,14.70
2018-03-24T16:45:35.172Z,15.73
2018-03-24T16:48:10.643Z,14.97
2018-03-24T16:50:45.317Z,14.33
2018-03-24T16:53:21.703Z,16.77
2018-03-24T16:55:58.354Z,15.00
2018-03-24T16:58:32.793Z,16.80
2018-03-24T17:01:07.044Z,15.73
2018-03-24T17:03:40.713Z,14.33
2018-03-24T17:06:18.457Z,16.20
2018-03-24T17:08:52.980Z,15.83
2018-03-24T17:11:27.809Z,16.40
2018-03-24T17:14:01.399Z,18.80
2018-03-24T17:16:35.513Z,20.83
2018-03-24T17:19:10.903Z,17.50
2018-03-24T17:21:44.223Z,18.57
2018-03-24T17:24:18.740Z,18.57
2018-03-24T17:26:54.142Z,21.30
2018-03-24T17:29:29.056Z,20.97
2018-03-24T17:32:02.721Z,22.37
2018-03-24T17:34:36.850Z,22.30
2018-03-24T17:37:12.827Z,21.33
2018-03-24T17:39:46.364Z,22.73
2018-03-24T17:42:19.887Z,21.23
2018-03-24T17:44:54.217Z,23.50
2018-03-24T17:47:27.729Z,24.00
2018-03-24T17:50:01.613Z,20.07
2018-03-24T17:52:36.916Z,22.97
2018-03-24T17:55:12.131Z,21.70
2018-03-24T17:57:45.316Z,22.37
2018-03-24T18:00:19.092Z,22.30
2018-03-24T18:02:53.197Z,25.70
2018-03-24T18:05:27.145Z,23.60
2018-03-24T18:08:01.571Z,23.77
2018-03-24T18:10:36.651Z,24.37
2018-03-24T18:13:10.228Z,25.47
2018-03-24T18:15:43.712Z,23.17
2018-03-24T18:18:17.692Z,23.07
2018-03-24T18:20:52.490Z,27.27
2018-03-24T18:23:25.767Z,24.17
2018-03-24T18:25:59.200Z,22.47
2018-03-24T18:28:32.832Z,27.80
2018-03-24T18:31:08.346Z,22.33
2018-03-24T18:33:43.376Z,22.77
2018-03-24T18:36:20.792Z,23.97
2018-03-24T18:38:58.527Z,23.60
2018-03-24T18:41:34.512Z,19.97
2018-03-24T18:44:08.228Z,20.37
2018-03-24T18:46:41.974Z,21.07
2018-03-24T18:49:16.585Z,20.33
2018-03-24T18:51:49.805Z,22.00
2018-03-24T18:54:24.620Z,21.33
2018-03-24T18:56:59.186Z,20.63
2018-03-24T18:59:33.284Z,20.93
2018-03-24T19:02:06.392Z,20.37
2018-03-24T19:04:40.080Z,21.53
2018-03-24T19:07:13.195Z,21.63
2018-03-24T19:09:47.711Z,21.57
2018-03-24T19:12:22.362Z,21.23
2018-03-24T19:14:57.397Z,22.10
2018-03-24T19:17:35.367Z,21.13
2018-03-24T19:20:09.084Z,22.13
2018-03-24T19:22:43.161Z,22.57
2018-03-24T19:25:17.150Z,21.73
2018-03-24T19:27:51.143Z,21.90
2018-03-24T19:30:25.037Z,20.40
2018-03-24T19:32:59.148Z,20.70
2018-03-24T19:35:33.684Z,23.17
2018-03-24T19:38:07.324Z,22.43
2018-03-24T19:40:40.711Z,23.80
2018-03-24T19:43:13.974Z,26.43
2018-03-24T19:45:48.066Z,22.27
2018-03-24T19:48:29.586Z,21.87
2018-03-24T19:51:03.459Z,23.30
2018-03-24T19:53:37.098Z,21.33
2018-03-24T19:56:10.520Z,21.00
2018-03-24T19:58:43.635Z,24.43
2018-03-24T20:01:16.835Z,21.30
2018-03-24T20:03:51.292Z,21.00
2018-03-24T20:06:25.424Z,21.40
2018-03-24T20:09:00.115Z,22.07
2018-03-24T20:11:33.836Z,23.07
2018-03-24T20:14:07.019Z,23.27
2018-03-24T20:16:41.536Z,24.20
2018-03-24T20:19:14.812Z,21.63
2018-03-24T20:21:50.082Z,23.90
2018-03-24T20:24:29.656Z,23.57
2018-03-24T20:27:03.399Z,23.80
2018-03-24T20:29:36.659Z,25.03
2018-03-24T20:32:10.050Z,24.03
2018-03-24T20:34:43.883Z,23.70
2018-03-24T20:37:16.957Z,22.17
2018-03-24T20:39:50.736Z,20.30
2018-03-24T20:42:24.356Z,21.47
2018-03-24T20:44:58.284Z,23.53
2018-03-24T20:47:31.862Z,24.60
2018-03-24T20:50:06.902Z,24.53
2018-03-24T20:52:40.774Z,25.27
2018-03-24T20:55:14.821Z,24.60
2018-03-24T20:57:48.497Z,24.27
2018-03-24T21:00:22.192Z,22.20
2018-03-24T21:02:56.277Z,24.60
2018-03-24T21:05:30.128Z,23.03
2018-03-24T21:08:03.539Z,22.83
2018-03-24T21:10:38.193Z,24.30
2018-03-24T21:13:11.812Z,26.27
2018-03-24T21:15:45.555Z,23.00
2018-03-24T21:18:20.683Z,23.53
2018-03-24T21:21:07.194Z,22.50
2018-03-24T21:23:42.293Z,26.40
2018-03-24T21:26:15.835Z,26.07
2018-03-24T21:28:49.496Z,22.73
2018-03-24T21:31:22.746Z,24.13
2018-03-24T21:33:56.039Z,24.83
2018-03-24T21:36:29.353Z,24.27
2018-03-24T21:39:05.888Z,26.37
2018-03-24T21:41:39.782Z,24.50
2018-03-24T21:44:12.898Z,25.63
2018-03-24T21:46:46.123Z,26.87
2018-03-24T21:49:19.372Z,27.87
2018-03-24T21:51:52.806Z,25.73
2018-03-24T21:54:29.551Z,27.63
2018-03-24T21:57:05.901Z,27.47
2018-03-24T21:59:39.845Z,29.00
2018-03-24T22:02:15.208Z,28.17
2018-03-24T22:04:49.655Z,25.67
2018-03-24T22:07:25.572Z,26.73
2018-03-24T22:10:00.878Z,26.43
2018-03-24T22:12:36.190Z,25.53
2018-03-24T22:15:12.947Z,28.53
2018-03-24T22:17:48.732Z,28.63
2018-03-24T22:20:24.502Z,29.17
2018-03-24T22:22:59.057Z,30.53
2018-03-24T22:25:32.789Z,27.40
2018-03-24T22:28:06.531Z,25.37
2018-03-24T22:30:39.477Z,26.90
2018-03-24T22:33:13.009Z,27.50
2018-03-24T22:35:47.675Z,26.73
2018-03-24T22:38:21.052Z,25.17
2018-03-24T22:40:54.160Z,25.50
2018-03-24T22:43:27.343Z,23.87
2018-03-24T22:46:01.840Z,24.37
2018-03-24T22:48:34.795Z,23.23
2018-03-24T22:51:09.485Z,22.43
2018-03-24T22:53:42.556Z,24.43
2018-03-24T22:56:15.403Z,23.17
2018-03-24T22:58:48.700Z,25.40
2018-03-24T23:01:22.037Z,26.60
2018-03-24T23:03:54.919Z,25.87
2018-03-24T23:06:28.562Z,23.90
2018-03-24T23:09:02.273Z,24.23
2018-03-24T23:11:35.313Z,22.77
2018-03-24T23:14:08.310Z,21.47
2018-03-24T23:16:41.355Z,26.03
2018-03-24T23:19:14.711Z,27.33
2018-03-24T23:21:47.781Z,24.03
2018-03-24T23:24:20.761Z,22.37
2018-03-24T23:26:54.681Z,24.67
2018-03-24T23:29:27.720Z,23.53
2018-03-24T23:32:00.846Z,21.83
2018-03-24T23:34:34.089Z,23.27
2018-03-24T23:37:07.152Z,22.93
2018-03-24T23:39:40.588Z,21.20
2018-03-24T23:42:14.660Z,23.07
2018-03-24T23:44:47.706Z,20.77
2018-03-24T23:47:21.172Z,19.70
2018-03-24T23:49:55.232Z,21.23
2018-03-24T23:52:28.615Z,21.60
2018-03-24T23:55:03.647Z,21.43
2018-03-24T23:57:37.208Z,21.00
